sensor_id;sensor_type;location;lat;lon;timestamp;P1;durP1;ratioP1;P2;durP2;ratioP2
23567;SDS011;11962;50.838;4.430;2023-05-06T00:02:10;4.13;;;1.80;;
23567;SDS011;11962;50.838;4.430;2023-05-06T00:04:36;3.50;;;2.28;;
23567;SDS011;11962;50.838;4.430;2023-05-06T00:07:02;5.00;;;1.83;;
23567;SDS011;11962;50.838;4.430;2023-05-06T00:09:28;4.07;;;1.98;;
23567;SDS011;11962;50.838;4.430;2023-05-06T00:11:53;2.75;;;1.63;;
23567;SDS011;11962;50.838;4.430;2023-05-06T00:14:19;2.70;;;1.65;;
23567;SDS011;11962;50.838;4.430;2023-05-06T00:16:45;6.38;;;2.22;;
23567;SDS011;11962;50.838;4.430;2023-05-06T00:19:11;3.38;;;2.05;;
23567;SDS011;11962;50.838;4.430;2023-05-06T00:21:36;3.42;;;2.00;;
23567;SDS011;11962;50.838;4.430;2023-05-06T00:24:03;3.25;;;1.90;;
23567;SDS011;11962;50.838;4.430;2023-05-06T00:26:29;6.25;;;1.88;;
23567;SDS011;11962;50.838;4.430;2023-05-06T00:28:55;3.33;;;1.77;;
23567;SDS011;11962;50.838;4.430;2023-05-06T00:31:20;3.22;;;1.80;;
23567;SDS011;11962;50.838;4.430;2023-05-06T00:33:46;3.08;;;1.55;;
23567;SDS011;11962;50.838;4.430;2023-05-06T00:36:12;2.53;;;1.67;;
23567;SDS011;11962;50.838;4.430;2023-05-06T00:38:38;3.08;;;1.83;;
23567;SDS011;11962;50.838;4.430;2023-05-06T00:41:04;4.20;;;1.70;;
23567;SDS011;11962;50.838;4.430;2023-05-06T00:43:30;2.85;;;1.60;;
23567;SDS011;11962;50.838;4.430;2023-05-06T00:45:56;2.58;;;1.55;;
23567;SDS011;11962;50.838;4.430;2023-05-06T00:48:21;1.58;;;1.48;;
23567;SDS011;11962;50.838;4.430;2023-05-06T00:50:47;4.03;;;1.88;;
23567;SDS011;11962;50.838;4.430;2023-05-06T00:53:13;3.28;;;1.42;;
23567;SDS011;11962;50.838;4.430;2023-05-06T00:55:40;3.00;;;1.63;;
23567;SDS011;11962;50.838;4.430;2023-05-06T00:58:06;2.38;;;1.67;;
23567;SDS011;11962;50.838;4.430;2023-05-06T01:00:32;3.72;;;1.83;;
23567;SDS011;11962;50.838;4.430;2023-05-06T01:02:58;4.10;;;1.70;;
23567;SDS011;11962;50.838;4.430;2023-05-06T01:05:25;3.45;;;1.73;;
23567;SDS011;11962;50.838;4.430;2023-05-06T01:08:03;3.65;;;1.63;;
23567;SDS011;11962;50.838;4.430;2023-05-06T01:13:20;3.17;;;1.95;;
23567;SDS011;11962;50.838;4.430;2023-05-06T01:15:55;3.08;;;1.52;;
23567;SDS011;11962;50.838;4.430;2023-05-06T01:20:51;2.47;;;1.40;;
23567;SDS011;11962;50.838;4.430;2023-05-06T01:23:18;1.95;;;1.60;;
23567;SDS011;11962;50.838;4.430;2023-05-06T01:25:44;2.20;;;1.70;;
23567;SDS011;11962;50.838;4.430;2023-05-06T01:28:10;1.77;;;1.55;;
23567;SDS011;11962;50.838;4.430;2023-05-06T01:36:22;1.92;;;1.45;;
23567;SDS011;11962;50.838;4.430;2023-05-06T01:39:11;2.85;;;1.50;;
23567;SDS011;11962;50.838;4.430;2023-05-06T01:41:39;2.95;;;1.63;;
23567;SDS011;11962;50.838;4.430;2023-05-06T01:44:06;3.85;;;1.80;;
23567;SDS011;11962;50.838;4.430;2023-05-06T01:46:33;2.65;;;1.60;;
23567;SDS011;11962;50.838;4.430;2023-05-06T01:49:00;4.82;;;1.70;;
23567;SDS011;11962;50.838;4.430;2023-05-06T01:51:31;3.42;;;1.75;;
23567;SDS011;11962;50.838;4.430;2023-05-06T01:53:58;1.80;;;1.50;;
23567;SDS011;11962;50.838;4.430;2023-05-06T01:56:24;1.75;;;1.50;;
23567;SDS011;11962;50.838;4.430;2023-05-06T01:58:50;2.45;;;1.70;;
23567;SDS011;11962;50.838;4.430;2023-05-06T02:01:16;4.97;;;1.88;;
23567;SDS011;11962;50.838;4.430;2023-05-06T02:03:42;4.18;;;1.65;;
23567;SDS011;11962;50.838;4.430;2023-05-06T02:06:07;6.85;;;2.42;;
23567;SDS011;11962;50.838;4.430;2023-05-06T02:08:33;2.88;;;1.77;;
23567;SDS011;11962;50.838;4.430;2023-05-06T02:10:59;2.97;;;2.00;;
23567;SDS011;11962;50.838;4.430;2023-05-06T02:13:25;4.50;;;2.13;;
23567;SDS011;11962;50.838;4.430;2023-05-06T02:15:51;2.83;;;2.00;;
23567;SDS011;11962;50.838;4.430;2023-05-06T02:18:18;2.85;;;1.90;;
23567;SDS011;11962;50.838;4.430;2023-05-06T02:20:43;2.50;;;1.58;;
23567;SDS011;11962;50.838;4.430;2023-05-06T02:23:09;3.20;;;1.90;;
23567;SDS011;11962;50.838;4.430;2023-05-06T02:25:35;2.60;;;1.75;;
23567;SDS011;11962;50.838;4.430;2023-05-06T02:28:01;5.28;;;1.95;;
23567;SDS011;11962;50.838;4.430;2023-05-06T02:30:27;4.78;;;1.70;;
23567;SDS011;11962;50.838;4.430;2023-05-06T02:32:55;3.63;;;1.80;;
23567;SDS011;11962;50.838;4.430;2023-05-06T02:35:21;3.53;;;2.00;;
23567;SDS011;11962;50.838;4.430;2023-05-06T02:37:47;4.05;;;2.05;;
23567;SDS011;11962;50.838;4.430;2023-05-06T02:40:13;4.40;;;2.00;;
23567;SDS011;11962;50.838;4.430;2023-05-06T02:42:39;5.22;;;2.17;;
23567;SDS011;11962;50.838;4.430;2023-05-06T02:45:05;3.97;;;2.20;;
23567;SDS011;11962;50.838;4.430;2023-05-06T02:47:31;4.00;;;2.05;;
23567;SDS011;11962;50.838;4.430;2023-05-06T02:49:57;4.97;;;2.40;;
23567;SDS011;11962;50.838;4.430;2023-05-06T02:52:23;3.30;;;2.13;;
23567;SDS011;11962;50.838;4.430;2023-05-06T02:54:49;4.32;;;2.20;;
23567;SDS011;11962;50.838;4.430;2023-05-06T02:57:15;3.83;;;2.17;;
23567;SDS011;11962;50.838;4.430;2023-05-06T02:59:40;3.30;;;2.00;;
23567;SDS011;11962;50.838;4.430;2023-05-06T03:02:06;3.33;;;2.10;;
23567;SDS011;11962;50.838;4.430;2023-05-06T03:04:32;3.65;;;1.75;;
23567;SDS011;11962;50.838;4.430;2023-05-06T03:06:58;4.68;;;2.00;;
23567;SDS011;11962;50.838;4.430;2023-05-06T03:09:23;4.88;;;2.03;;
23567;SDS011;11962;50.838;4.430;2023-05-06T03:11:49;3.67;;;1.98;;
23567;SDS011;11962;50.838;4.430;2023-05-06T03:14:15;3.15;;;1.92;;
23567;SDS011;11962;50.838;4.430;2023-05-06T03:16:41;3.67;;;1.92;;
23567;SDS011;11962;50.838;4.430;2023-05-06T03:19:06;2.72;;;1.80;;
23567;SDS011;11962;50.838;4.430;2023-05-06T03:21:35;3.33;;;1.70;;
23567;SDS011;11962;50.838;4.430;2023-05-06T03:24:01;4.55;;;2.15;;
23567;SDS011;11962;50.838;4.430;2023-05-06T03:26:27;5.63;;;2.00;;
23567;SDS011;11962;50.838;4.430;2023-05-06T03:28:53;3.30;;;1.80;;
23567;SDS011;11962;50.838;4.430;2023-05-06T03:31:18;4.90;;;2.15;;
23567;SDS011;11962;50.838;4.430;2023-05-06T03:33:44;3.63;;;2.20;;
23567;SDS011;11962;50.838;4.430;2023-05-06T03:36:10;3.08;;;1.80;;
23567;SDS011;11962;50.838;4.430;2023-05-06T03:38:38;5.70;;;2.25;;
23567;SDS011;11962;50.838;4.430;2023-05-06T03:41:04;3.03;;;2.17;;
23567;SDS011;11962;50.838;4.430;2023-05-06T03:43:30;2.72;;;2.00;;
23567;SDS011;11962;50.838;4.430;2023-05-06T03:45:56;3.33;;;2.00;;
23567;SDS011;11962;50.838;4.430;2023-05-06T03:48:22;4.93;;;2.38;;
23567;SDS011;11962;50.838;4.430;2023-05-06T03:50:48;4.05;;;2.28;;
23567;SDS011;11962;50.838;4.430;2023-05-06T03:53:14;3.53;;;2.10;;
23567;SDS011;11962;50.838;4.430;2023-05-06T03:55:40;4.03;;;2.13;;
23567;SDS011;11962;50.838;4.430;2023-05-06T03:58:06;4.68;;;2.20;;
23567;SDS011;11962;50.838;4.430;2023-05-06T04:00:31;4.85;;;2.05;;
23567;SDS011;11962;50.838;4.430;2023-05-06T04:02:57;4.78;;;2.50;;
23567;SDS011;11962;50.838;4.430;2023-05-06T04:05:23;2.40;;;2.13;;
23567;SDS011;11962;50.838;4.430;2023-05-06T04:07:49;4.22;;;2.42;;
23567;SDS011;11962;50.838;4.430;2023-05-06T04:10:15;5.07;;;2.33;;
23567;SDS011;11962;50.838;4.430;2023-05-06T04:12:40;3.38;;;2.22;;
23567;SDS011;11962;50.838;4.430;2023-05-06T04:15:06;2.75;;;2.03;;
23567;SDS011;11962;50.838;4.430;2023-05-06T04:17:32;3.67;;;2.35;;
23567;SDS011;11962;50.838;4.430;2023-05-06T04:19:58;4.20;;;2.42;;
23567;SDS011;11962;50.838;4.430;2023-05-06T04:22:25;7.80;;;2.20;;
23567;SDS011;11962;50.838;4.430;2023-05-06T04:24:50;3.03;;;2.10;;
23567;SDS011;11962;50.838;4.430;2023-05-06T04:27:16;4.78;;;2.55;;
23567;SDS011;11962;50.838;4.430;2023-05-06T04:29:42;3.47;;;2.20;;
23567;SDS011;11962;50.838;4.430;2023-05-06T04:32:08;3.45;;;2.13;;
23567;SDS011;11962;50.838;4.430;2023-05-06T04:34:35;7.03;;;2.30;;
23567;SDS011;11962;50.838;4.430;2023-05-06T04:37:01;3.78;;;2.17;;
23567;SDS011;11962;50.838;4.430;2023-05-06T04:39:27;4.88;;;2.15;;
23567;SDS011;11962;50.838;4.430;2023-05-06T04:41:53;4.25;;;2.15;;
23567;SDS011;11962;50.838;4.430;2023-05-06T04:44:19;4.00;;;2.45;;
23567;SDS011;11962;50.838;4.430;2023-05-06T04:46:44;4.57;;;1.98;;
23567;SDS011;11962;50.838;4.430;2023-05-06T04:49:11;2.88;;;2.15;;
23567;SDS011;11962;50.838;4.430;2023-05-06T04:51:36;5.32;;;2.53;;
23567;SDS011;11962;50.838;4.430;2023-05-06T04:54:02;3.28;;;2.35;;
23567;SDS011;11962;50.838;4.430;2023-05-06T04:56:28;4.13;;;2.25;;
23567;SDS011;11962;50.838;4.430;2023-05-06T04:58:54;7.70;;;2.33;;
23567;SDS011;11962;50.838;4.430;2023-05-06T05:01:20;4.82;;;2.22;;
23567;SDS011;11962;50.838;4.430;2023-05-06T05:03:46;3.47;;;2.28;;
23567;SDS011;11962;50.838;4.430;2023-05-06T05:06:11;3.72;;;2.38;;
23567;SDS011;11962;50.838;4.430;2023-05-06T05:08:38;4.13;;;2.50;;
23567;SDS011;11962;50.838;4.430;2023-05-06T05:11:07;4.20;;;2.10;;
23567;SDS011;11962;50.838;4.430;2023-05-06T05:13:33;6.75;;;2.08;;
23567;SDS011;11962;50.838;4.430;2023-05-06T05:15:59;3.92;;;1.90;;
23567;SDS011;11962;50.838;4.430;2023-05-06T05:18:25;3.90;;;2.38;;
23567;SDS011;11962;50.838;4.430;2023-05-06T05:20:53;3.47;;;2.08;;
23567;SDS011;11962;50.838;4.430;2023-05-06T05:23:18;3.83;;;2.20;;
23567;SDS011;11962;50.838;4.430;2023-05-06T05:25:44;3.33;;;2.10;;
23567;SDS011;11962;50.838;4.430;2023-05-06T05:28:10;4.22;;;2.13;;
23567;SDS011;11962;50.838;4.430;2023-05-06T05:30:36;3.22;;;1.83;;
23567;SDS011;11962;50.838;4.430;2023-05-06T05:33:02;4.13;;;2.00;;
23567;SDS011;11962;50.838;4.430;2023-05-06T05:35:27;2.45;;;1.80;;
23567;SDS011;11962;50.838;4.430;2023-05-06T05:37:53;2.90;;;1.70;;
23567;SDS011;11962;50.838;4.430;2023-05-06T05:40:19;2.78;;;1.65;;
23567;SDS011;11962;50.838;4.430;2023-05-06T05:42:45;3.03;;;1.88;;
23567;SDS011;11962;50.838;4.430;2023-05-06T05:45:10;5.68;;;2.65;;
23567;SDS011;11962;50.838;4.430;2023-05-06T05:47:36;5.13;;;2.10;;
23567;SDS011;11962;50.838;4.430;2023-05-06T05:50:02;2.90;;;2.10;;
23567;SDS011;11962;50.838;4.430;2023-05-06T05:52:28;1.85;;;1.60;;
23567;SDS011;11962;50.838;4.430;2023-05-06T05:54:54;2.65;;;1.90;;
23567;SDS011;11962;50.838;4.430;2023-05-06T05:57:20;4.00;;;2.00;;
23567;SDS011;11962;50.838;4.430;2023-05-06T05:59:46;5.13;;;1.95;;
23567;SDS011;11962;50.838;4.430;2023-05-06T06:02:11;3.45;;;1.90;;
23567;SDS011;11962;50.838;4.430;2023-05-06T06:04:37;3.05;;;1.58;;
23567;SDS011;11962;50.838;4.430;2023-05-06T06:07:03;2.05;;;1.55;;
23567;SDS011;11962;50.838;4.430;2023-05-06T06:09:29;4.15;;;1.50;;
23567;SDS011;11962;50.838;4.430;2023-05-06T06:11:55;2.33;;;1.67;;
23567;SDS011;11962;50.838;4.430;2023-05-06T06:14:20;1.58;;;1.08;;
23567;SDS011;11962;50.838;4.430;2023-05-06T06:16:46;2.20;;;1.20;;
23567;SDS011;11962;50.838;4.430;2023-05-06T06:19:12;1.35;;;1.10;;
23567;SDS011;11962;50.838;4.430;2023-05-06T06:21:38;3.47;;;1.00;;
23567;SDS011;11962;50.838;4.430;2023-05-06T06:24:04;1.38;;;0.88;;
23567;SDS011;11962;50.838;4.430;2023-05-06T06:26:30;2.72;;;1.10;;
23567;SDS011;11962;50.838;4.430;2023-05-06T06:28:56;1.63;;;1.10;;
23567;SDS011;11962;50.838;4.430;2023-05-06T06:31:22;1.52;;;1.02;;
23567;SDS011;11962;50.838;4.430;2023-05-06T06:33:47;3.10;;;1.13;;
23567;SDS011;11962;50.838;4.430;2023-05-06T06:36:13;2.28;;;0.88;;
23567;SDS011;11962;50.838;4.430;2023-05-06T06:38:39;3.40;;;1.10;;
23567;SDS011;11962;50.838;4.430;2023-05-06T06:41:05;3.20;;;1.20;;
23567;SDS011;11962;50.838;4.430;2023-05-06T06:43:31;1.90;;;1.00;;
23567;SDS011;11962;50.838;4.430;2023-05-06T06:45:57;1.48;;;0.90;;
23567;SDS011;11962;50.838;4.430;2023-05-06T06:48:23;2.97;;;1.20;;
23567;SDS011;11962;50.838;4.430;2023-05-06T06:50:49;1.38;;;0.93;;
23567;SDS011;11962;50.838;4.430;2023-05-06T06:53:14;2.55;;;1.25;;
23567;SDS011;11962;50.838;4.430;2023-05-06T06:55:44;3.58;;;1.30;;
23567;SDS011;11962;50.838;4.430;2023-05-06T06:58:10;2.42;;;1.30;;
23567;SDS011;11962;50.838;4.430;2023-05-06T07:00:36;3.13;;;1.15;;
23567;SDS011;11962;50.838;4.430;2023-05-06T07:03:02;3.38;;;1.17;;
23567;SDS011;11962;50.838;4.430;2023-05-06T07:05:28;2.47;;;1.20;;
23567;SDS011;11962;50.838;4.430;2023-05-06T07:07:53;3.00;;;1.10;;
23567;SDS011;11962;50.838;4.430;2023-05-06T07:10:20;3.45;;;1.58;;
23567;SDS011;11962;50.838;4.430;2023-05-06T07:12:46;3.42;;;1.83;;
23567;SDS011;11962;50.838;4.430;2023-05-06T07:15:11;2.35;;;1.42;;
23567;SDS011;11962;50.838;4.430;2023-05-06T07:17:37;4.20;;;1.65;;
23567;SDS011;11962;50.838;4.430;2023-05-06T07:20:03;3.88;;;1.42;;
23567;SDS011;11962;50.838;4.430;2023-05-06T07:22:29;5.28;;;1.50;;
23567;SDS011;11962;50.838;4.430;2023-05-06T07:24:55;2.47;;;1.17;;
23567;SDS011;11962;50.838;4.430;2023-05-06T07:27:21;2.80;;;1.10;;
23567;SDS011;11962;50.838;4.430;2023-05-06T07:29:48;3.63;;;1.10;;
23567;SDS011;11962;50.838;4.430;2023-05-06T07:32:14;4.32;;;1.00;;
23567;SDS011;11962;50.838;4.430;2023-05-06T07:34:40;5.57;;;1.50;;
23567;SDS011;11962;50.838;4.430;2023-05-06T07:37:06;3.88;;;1.25;;
23567;SDS011;11962;50.838;4.430;2023-05-06T07:39:32;3.33;;;1.40;;
23567;SDS011;11962;50.838;4.430;2023-05-06T07:41:58;2.28;;;1.10;;
23567;SDS011;11962;50.838;4.430;2023-05-06T07:44:24;3.20;;;1.35;;
23567;SDS011;11962;50.838;4.430;2023-05-06T07:46:49;5.55;;;1.25;;
23567;SDS011;11962;50.838;4.430;2023-05-06T07:49:15;3.25;;;1.08;;
23567;SDS011;11962;50.838;4.430;2023-05-06T07:51:41;7.25;;;1.38;;
23567;SDS011;11962;50.838;4.430;2023-05-06T07:54:08;4.45;;;1.27;;
23567;SDS011;11962;50.838;4.430;2023-05-06T07:56:33;4.50;;;1.00;;
23567;SDS011;11962;50.838;4.430;2023-05-06T07:58:59;2.45;;;0.90;;
23567;SDS011;11962;50.838;4.430;2023-05-06T08:01:26;4.28;;;1.17;;
23567;SDS011;11962;50.838;4.430;2023-05-06T08:03:53;3.60;;;1.20;;
23567;SDS011;11962;50.838;4.430;2023-05-06T08:06:18;2.78;;;1.00;;
23567;SDS011;11962;50.838;4.430;2023-05-06T08:08:44;1.73;;;0.68;;
23567;SDS011;11962;50.838;4.430;2023-05-06T08:11:11;4.97;;;1.20;;
23567;SDS011;11962;50.838;4.430;2023-05-06T08:13:37;1.98;;;1.00;;
23567;SDS011;11962;50.838;4.430;2023-05-06T08:16:03;1.15;;;0.70;;
23567;SDS011;11962;50.838;4.430;2023-05-06T08:18:30;3.30;;;0.77;;
23567;SDS011;11962;50.838;4.430;2023-05-06T08:20:57;3.85;;;1.00;;
23567;SDS011;11962;50.838;4.430;2023-05-06T08:23:22;2.63;;;0.95;;
23567;SDS011;11962;50.838;4.430;2023-05-06T08:25:48;2.35;;;0.75;;
23567;SDS011;11962;50.838;4.430;2023-05-06T08:28:14;1.55;;;0.75;;
23567;SDS011;11962;50.838;4.430;2023-05-06T08:30:40;2.00;;;0.80;;
23567;SDS011;11962;50.838;4.430;2023-05-06T08:33:06;1.25;;;0.75;;
23567;SDS011;11962;50.838;4.430;2023-05-06T08:35:31;3.13;;;0.75;;
23567;SDS011;11962;50.838;4.430;2023-05-06T08:37:57;2.65;;;0.90;;
23567;SDS011;11962;50.838;4.430;2023-05-06T08:40:23;2.57;;;0.97;;
23567;SDS011;11962;50.838;4.430;2023-05-06T08:42:51;1.77;;;0.70;;
23567;SDS011;11962;50.838;4.430;2023-05-06T08:45:20;3.53;;;0.90;;
23567;SDS011;11962;50.838;4.430;2023-05-06T08:47:46;2.65;;;1.13;;
23567;SDS011;11962;50.838;4.430;2023-05-06T08:50:12;1.90;;;1.05;;
23567;SDS011;11962;50.838;4.430;2023-05-06T08:52:38;1.67;;;0.90;;
23567;SDS011;11962;50.838;4.430;2023-05-06T08:55:04;2.72;;;0.90;;
23567;SDS011;11962;50.838;4.430;2023-05-06T08:57:31;3.60;;;0.80;;
23567;SDS011;11962;50.838;4.430;2023-05-06T08:59:58;1.80;;;0.70;;
23567;SDS011;11962;50.838;4.430;2023-05-06T09:02:24;1.92;;;1.00;;
23567;SDS011;11962;50.838;4.430;2023-05-06T09:04:51;1.83;;;0.80;;
23567;SDS011;11962;50.838;4.430;2023-05-06T09:07:21;1.77;;;0.88;;
23567;SDS011;11962;50.838;4.430;2023-05-06T09:09:47;3.28;;;1.10;;
23567;SDS011;11962;50.838;4.430;2023-05-06T09:12:13;3.85;;;0.77;;
23567;SDS011;11962;50.838;4.430;2023-05-06T09:14:40;2.72;;;0.85;;
23567;SDS011;11962;50.838;4.430;2023-05-06T09:17:15;1.88;;;0.77;;
23567;SDS011;11962;50.838;4.430;2023-05-06T09:19:49;4.10;;;0.90;;
23567;SDS011;11962;50.838;4.430;2023-05-06T09:22:17;1.77;;;0.93;;
23567;SDS011;11962;50.838;4.430;2023-05-06T09:24:45;3.33;;;1.10;;
23567;SDS011;11962;50.838;4.430;2023-05-06T09:30:06;3.38;;;1.40;;
23567;SDS011;11962;50.838;4.430;2023-05-06T09:32:36;1.70;;;0.85;;
23567;SDS011;11962;50.838;4.430;2023-05-06T09:35:02;3.88;;;1.20;;
23567;SDS011;11962;50.838;4.430;2023-05-06T09:37:29;3.50;;;0.80;;
23567;SDS011;11962;50.838;4.430;2023-05-06T09:39:55;3.38;;;0.80;;
23567;SDS011;11962;50.838;4.430;2023-05-06T09:42:23;2.67;;;1.02;;
23567;SDS011;11962;50.838;4.430;2023-05-06T09:44:53;1.58;;;0.60;;
23567;SDS011;11962;50.838;4.430;2023-05-06T09:47:20;1.63;;;0.80;;
23567;SDS011;11962;50.838;4.430;2023-05-06T09:49:47;4.63;;;0.90;;
23567;SDS011;11962;50.838;4.430;2023-05-06T09:52:12;5.60;;;0.98;;
23567;SDS011;11962;50.838;4.430;2023-05-06T09:54:39;4.15;;;0.80;;
23567;SDS011;11962;50.838;4.430;2023-05-06T09:57:05;3.83;;;0.90;;
23567;SDS011;11962;50.838;4.430;2023-05-06T09:59:31;3.45;;;0.80;;
23567;SDS011;11962;50.838;4.430;2023-05-06T10:01:58;3.72;;;0.98;;
23567;SDS011;11962;50.838;4.430;2023-05-06T10:04:25;6.70;;;1.25;;
23567;SDS011;11962;50.838;4.430;2023-05-06T10:06:52;2.95;;;0.90;;
23567;SDS011;11962;50.838;4.430;2023-05-06T10:09:23;2.15;;;0.90;;
23567;SDS011;11962;50.838;4.430;2023-05-06T10:11:49;5.38;;;0.60;;
23567;SDS011;11962;50.838;4.430;2023-05-06T10:14:16;3.45;;;0.85;;
23567;SDS011;11962;50.838;4.430;2023-05-06T10:16:47;3.10;;;1.10;;
23567;SDS011;11962;50.838;4.430;2023-05-06T10:19:14;1.88;;;0.82;;
23567;SDS011;11962;50.838;4.430;2023-05-06T10:21:48;2.60;;;0.93;;
23567;SDS011;11962;50.838;4.430;2023-05-06T10:24:22;2.97;;;0.90;;
23567;SDS011;11962;50.838;4.430;2023-05-06T10:26:53;2.33;;;0.80;;
23567;SDS011;11962;50.838;4.430;2023-05-06T10:29:20;3.33;;;0.80;;
23567;SDS011;11962;50.838;4.430;2023-05-06T10:31:53;2.67;;;1.00;;
23567;SDS011;11962;50.838;4.430;2023-05-06T10:34:21;3.75;;;0.80;;
23567;SDS011;11962;50.838;4.430;2023-05-06T10:36:49;3.45;;;1.05;;
23567;SDS011;11962;50.838;4.430;2023-05-06T10:39:18;3.00;;;0.90;;
23567;SDS011;11962;50.838;4.430;2023-05-06T10:41:45;2.63;;;0.70;;
23567;SDS011;11962;50.838;4.430;2023-05-06T10:44:11;5.05;;;0.75;;
23567;SDS011;11962;50.838;4.430;2023-05-06T10:46:57;3.83;;;0.88;;
23567;SDS011;11962;50.838;4.430;2023-05-06T10:49:24;2.22;;;0.80;;
23567;SDS011;11962;50.838;4.430;2023-05-06T10:52:11;4.80;;;0.98;;
23567;SDS011;11962;50.838;4.430;2023-05-06T10:54:47;2.03;;;0.93;;
23567;SDS011;11962;50.838;4.430;2023-05-06T10:57:14;6.33;;;1.10;;
23567;SDS011;11962;50.838;4.430;2023-05-06T10:59:44;5.35;;;1.25;;
23567;SDS011;11962;50.838;4.430;2023-05-06T11:02:11;2.95;;;0.90;;
23567;SDS011;11962;50.838;4.430;2023-05-06T11:04:38;5.10;;;1.20;;
23567;SDS011;11962;50.838;4.430;2023-05-06T11:07:08;2.95;;;1.00;;
23567;SDS011;11962;50.838;4.430;2023-05-06T11:12:50;4.03;;;1.65;;
23567;SDS011;11962;50.838;4.430;2023-05-06T11:15:20;3.42;;;1.27;;
23567;SDS011;11962;50.838;4.430;2023-05-06T11:17:51;2.90;;;1.30;;
23567;SDS011;11962;50.838;4.430;2023-05-06T11:22:47;3.07;;;1.13;;
23567;SDS011;11962;50.838;4.430;2023-05-06T11:25:13;3.22;;;0.90;;
23567;SDS011;11962;50.838;4.430;2023-05-06T11:27:59;4.47;;;1.10;;
23567;SDS011;11962;50.838;4.430;2023-05-06T11:30:25;4.22;;;1.00;;
23567;SDS011;11962;50.838;4.430;2023-05-06T11:32:52;4.85;;;1.60;;
23567;SDS011;11962;50.838;4.430;2023-05-06T11:35:19;4.85;;;0.93;;
23567;SDS011;11962;50.838;4.430;2023-05-06T11:37:46;2.67;;;1.00;;
23567;SDS011;11962;50.838;4.430;2023-05-06T11:40:13;4.68;;;1.20;;
23567;SDS011;11962;50.838;4.430;2023-05-06T11:42:39;2.47;;;1.00;;
23567;SDS011;11962;50.838;4.430;2023-05-06T11:45:05;7.43;;;1.42;;
23567;SDS011;11962;50.838;4.430;2023-05-06T11:47:32;3.40;;;0.95;;
23567;SDS011;11962;50.838;4.430;2023-05-06T11:49:57;4.22;;;0.95;;
23567;SDS011;11962;50.838;4.430;2023-05-06T11:52:23;5.55;;;1.33;;
23567;SDS011;11962;50.838;4.430;2023-05-06T11:54:50;3.47;;;1.08;;
23567;SDS011;11962;50.838;4.430;2023-05-06T11:57:18;3.10;;;0.90;;
23567;SDS011;11962;50.838;4.430;2023-05-06T11:59:44;2.20;;;0.82;;
23567;SDS011;11962;50.838;4.430;2023-05-06T12:02:11;2.72;;;1.10;;
23567;SDS011;11962;50.838;4.430;2023-05-06T12:04:38;3.47;;;1.13;;
23567;SDS011;11962;50.838;4.430;2023-05-06T12:07:08;2.72;;;0.73;;
23567;SDS011;11962;50.838;4.430;2023-05-06T12:09:39;3.13;;;1.10;;
23567;SDS011;11962;50.838;4.430;2023-05-06T12:12:11;2.97;;;1.10;;
23567;SDS011;11962;50.838;4.430;2023-05-06T12:14:41;6.30;;;1.38;;
23567;SDS011;11962;50.838;4.430;2023-05-06T12:17:08;5.22;;;1.48;;
23567;SDS011;11962;50.838;4.430;2023-05-06T12:19:34;3.45;;;1.10;;
23567;SDS011;11962;50.838;4.430;2023-05-06T12:22:22;6.07;;;1.50;;
23567;SDS011;11962;50.838;4.430;2023-05-06T12:27:26;7.18;;;1.65;;
23567;SDS011;11962;50.838;4.430;2023-05-06T12:29:53;4.60;;;1.30;;
23567;SDS011;11962;50.838;4.430;2023-05-06T12:32:19;7.28;;;1.42;;
23567;SDS011;11962;50.838;4.430;2023-05-06T12:34:45;4.05;;;1.42;;
23567;SDS011;11962;50.838;4.430;2023-05-06T12:37:10;4.65;;;1.33;;
23567;SDS011;11962;50.838;4.430;2023-05-06T12:39:47;3.08;;;1.10;;
23567;SDS011;11962;50.838;4.430;2023-05-06T12:42:18;4.50;;;1.45;;
23567;SDS011;11962;50.838;4.430;2023-05-06T12:44:44;6.03;;;1.40;;
23567;SDS011;11962;50.838;4.430;2023-05-06T12:47:21;6.60;;;1.20;;
23567;SDS011;11962;50.838;4.430;2023-05-06T12:52:15;4.05;;;1.20;;
23567;SDS011;11962;50.838;4.430;2023-05-06T12:54:43;4.25;;;1.45;;
23567;SDS011;11962;50.838;4.430;2023-05-06T12:57:09;5.35;;;1.25;;
23567;SDS011;11962;50.838;4.430;2023-05-06T12:59:36;6.45;;;1.17;;
23567;SDS011;11962;50.838;4.430;2023-05-06T13:02:02;4.40;;;1.45;;
23567;SDS011;11962;50.838;4.430;2023-05-06T13:04:29;6.53;;;1.63;;
23567;SDS011;11962;50.838;4.430;2023-05-06T13:06:55;8.13;;;1.50;;
23567;SDS011;11962;50.838;4.430;2023-05-06T13:09:22;7.00;;;1.40;;
23567;SDS011;11962;50.838;4.430;2023-05-06T13:11:48;7.72;;;1.33;;
23567;SDS011;11962;50.838;4.430;2023-05-06T13:14:13;7.50;;;1.63;;
23567;SDS011;11962;50.838;4.430;2023-05-06T13:16:40;5.55;;;1.20;;
23567;SDS011;11962;50.838;4.430;2023-05-06T13:19:07;3.70;;;1.50;;
23567;SDS011;11962;50.838;4.430;2023-05-06T13:21:34;5.68;;;1.83;;
23567;SDS011;11962;50.838;4.430;2023-05-06T13:24:01;8.75;;;1.80;;
23567;SDS011;11962;50.838;4.430;2023-05-06T13:26:27;5.35;;;1.95;;
23567;SDS011;11962;50.838;4.430;2023-05-06T13:28:53;4.25;;;1.40;;
23567;SDS011;11962;50.838;4.430;2023-05-06T13:31:19;5.95;;;1.27;;
23567;SDS011;11962;50.838;4.430;2023-05-06T13:33:46;5.45;;;1.27;;
23567;SDS011;11962;50.838;4.430;2023-05-06T13:36:12;4.68;;;1.70;;
23567;SDS011;11962;50.838;4.430;2023-05-06T13:38:38;5.57;;;1.52;;
23567;SDS011;11962;50.838;4.430;2023-05-06T13:41:04;6.53;;;1.58;;
23567;SDS011;11962;50.838;4.430;2023-05-06T13:43:31;4.32;;;1.30;;
23567;SDS011;11962;50.838;4.430;2023-05-06T13:45:57;4.88;;;1.52;;
23567;SDS011;11962;50.838;4.430;2023-05-06T13:48:22;7.90;;;1.90;;
23567;SDS011;11962;50.838;4.430;2023-05-06T13:50:48;5.95;;;1.85;;
23567;SDS011;11962;50.838;4.430;2023-05-06T13:53:14;6.30;;;1.83;;
23567;SDS011;11962;50.838;4.430;2023-05-06T13:55:41;6.00;;;1.95;;
23567;SDS011;11962;50.838;4.430;2023-05-06T13:58:07;6.25;;;1.33;;
23567;SDS011;11962;50.838;4.430;2023-05-06T14:00:33;5.22;;;1.75;;
23567;SDS011;11962;50.838;4.430;2023-05-06T14:03:02;5.50;;;1.85;;
23567;SDS011;11962;50.838;4.430;2023-05-06T14:05:28;4.47;;;1.92;;
23567;SDS011;11962;50.838;4.430;2023-05-06T14:07:54;4.97;;;1.50;;
23567;SDS011;11962;50.838;4.430;2023-05-06T14:10:20;7.90;;;1.58;;
23567;SDS011;11962;50.838;4.430;2023-05-06T14:12:46;7.32;;;1.88;;
23567;SDS011;11962;50.838;4.430;2023-05-06T14:15:12;4.90;;;1.45;;
23567;SDS011;11962;50.838;4.430;2023-05-06T14:17:41;6.20;;;1.73;;
23567;SDS011;11962;50.838;4.430;2023-05-06T14:20:08;5.22;;;1.35;;
23567;SDS011;11962;50.838;4.430;2023-05-06T14:22:35;4.93;;;1.25;;
23567;SDS011;11962;50.838;4.430;2023-05-06T14:25:01;5.77;;;1.50;;
23567;SDS011;11962;50.838;4.430;2023-05-06T14:27:27;5.88;;;1.17;;
23567;SDS011;11962;50.838;4.430;2023-05-06T14:29:53;6.63;;;1.33;;
23567;SDS011;11962;50.838;4.430;2023-05-06T14:32:18;5.90;;;1.50;;
23567;SDS011;11962;50.838;4.430;2023-05-06T14:34:44;5.68;;;1.45;;
23567;SDS011;11962;50.838;4.430;2023-05-06T14:37:10;3.55;;;1.15;;
23567;SDS011;11962;50.838;4.430;2023-05-06T14:39:36;5.93;;;1.38;;
23567;SDS011;11962;50.838;4.430;2023-05-06T14:42:01;6.10;;;1.25;;
23567;SDS011;11962;50.838;4.430;2023-05-06T14:44:27;7.75;;;1.55;;
23567;SDS011;11962;50.838;4.430;2023-05-06T14:46:53;8.90;;;1.60;;
23567;SDS011;11962;50.838;4.430;2023-05-06T14:49:19;5.18;;;1.63;;
23567;SDS011;11962;50.838;4.430;2023-05-06T14:51:45;8.27;;;1.40;;
23567;SDS011;11962;50.838;4.430;2023-05-06T14:54:14;8.52;;;1.50;;
23567;SDS011;11962;50.838;4.430;2023-05-06T14:56:40;7.38;;;1.80;;
23567;SDS011;11962;50.838;4.430;2023-05-06T14:59:06;4.55;;;1.60;;
23567;SDS011;11962;50.838;4.430;2023-05-06T15:01:32;8.95;;;2.08;;
23567;SDS011;11962;50.838;4.430;2023-05-06T15:03:58;6.47;;;1.80;;
23567;SDS011;11962;50.838;4.430;2023-05-06T15:06:23;5.82;;;1.63;;
23567;SDS011;11962;50.838;4.430;2023-05-06T15:08:49;6.32;;;1.67;;
23567;SDS011;11962;50.838;4.430;2023-05-06T15:11:16;7.72;;;1.55;;